Time;durP1;ratioP1;P1;durP2;ratioP2;P2;SDS_P1;SDS_P2;PMS_P1;PMS_P2;Temp;Humidity;BMP_temperature;BMP_pressure;BME280_temperature;BME280_humidity;BME280_pressure;Samples;Min_cycle;Max_cycle;Signal;HPM_P1;HPM_P2
2021/10/12 00:00:06;;;;;;;1083.72;999.90;;;;;;;11.02;67.48;101391.63;685359;28;22389;-66
2021/10/12 00:00:34;;;;;;;1079.07;999.90;;;;;;;11.03;67.41;101385.19;681929;28;138942;-66
2021/10/12 00:00:55;;;;;;;1105.32;999.90;;;;;;;11.02;67.33;101388.91;684694;28;45346;-66
2021/10/12 00:01:16;;;;;;;1112.30;999.90;;;;;;;11.02;67.41;101386.22;685788;28;22402;-66
2021/10/12 00:01:38;;;;;;;1067.22;999.90;;;;;;;11.03;67.25;101396.00;684842;28;46402;-66
2021/10/12 00:02:00;;;;;;;1091.82;999.90;;;;;;;11.03;67.40;101390.59;685749;28;22227;-66
2021/10/12 00:02:21;;;;;;;1093.82;999.90;;;;;;;11.02;67.20;101394.31;685100;28;46333;-66
2021/10/12 00:02:42;;;;;;;1104.68;999.90;;;;;;;11.03;67.35;101389.75;685779;28;23412;-66
2021/10/12 00:03:03;;;;;;;1103.88;999.90;;;;;;;10.95;67.50;101372.47;685719;28;23543;-66
2021/10/12 00:03:25;;;;;;;1085.30;999.90;;;;;;;10.99;67.19;101390.09;685292;28;22588;-66
2021/10/12 00:03:46;;;;;;;1091.50;999.90;;;;;;;11.00;67.46;101390.91;685069;28;44568;-66
2021/10/12 00:04:08;;;;;;;1093.40;999.90;;;;;;;10.99;67.45;101392.78;685687;28;23414;-66
2021/10/12 00:04:30;;;;;;;1115.00;999.90;;;;;;;11.02;67.42;101393.47;685745;28;22394;-66
2021/10/12 00:04:51;;;;;;;1137.20;999.90;;;;;;;11.01;67.28;101389.91;685122;28;46247;-66
2021/10/12 00:05:13;;;;;;;1106.13;999.90;;;;;;;11.01;67.54;101384.50;685204;28;21358;-66
2021/10/12 00:05:34;;;;;;;1047.70;985.33;;;;;;;11.00;67.22;101386.38;683777;28;67471;-66
2021/10/12 00:06:01;;;;;;;1049.85;987.65;;;;;;;10.99;67.61;101390.09;684830;28;22253;-67
2021/10/12 00:06:22;;;;;;;1020.65;960.35;;;;;;;10.98;67.66;101384.84;681732;28;138153;-66
2021/10/12 00:06:43;;;;;;;1025.03;964.65;;;;;;;10.97;67.31;101388.53;685519;28;22392;-66
2021/10/12 00:07:06;;;;;;;1013.95;954.20;;;;;;;10.95;67.52;101383.28;683440;28;92046;-66
2021/10/12 00:07:28;;;;;;;996.67;938.03;;;;;;;10.93;67.39;101385.31;685774;28;22401;-66
2021/10/12 00:07:49;;;;;;;987.55;929.55;;;;;;;10.93;67.70;101381.78;684341;28;44370;-66
2021/10/12 00:08:10;;;;;;;967.97;911.05;;;;;;;10.91;67.44;101379.25;685668;28;21262;-66
2021/10/12 00:08:33;;;;;;;979.67;922.17;;;;;;;10.90;67.68;101380.25;685419;28;45246;-66
2021/10/12 00:08:56;;;;;;;967.15;910.58;;;;;;;10.90;67.68;101382.13;685373;28;46401;-66
2021/10/12 00:09:17;;;;;;;950.63;894.85;;;;;;;10.89;67.80;101383.94;684857;28;46149;-66
2021/10/12 00:09:38;;;;;;;963.90;907.40;;;;;;;10.89;67.71;101383.94;685090;28;46281;-66
2021/10/12 00:09:59;;;;;;;949.50;893.58;;;;;;;10.88;67.83;101381.41;686078;28;21528;-66
2021/10/12 00:10:21;;;;;;;939.58;884.15;;;;;;;10.86;67.66;101375.34;686068;28;23452;-66
2021/10/12 00:10:42;;;;;;;957.92;901.92;;;;;;;10.86;67.71;101383.44;685102;28;44173;-66
2021/10/12 00:11:03;;;;;;;944.63;889.10;;;;;;;10.87;67.85;101375.16;685565;28;15781;-66
2021/10/12 00:11:25;;;;;;;946.17;890.60;;;;;;;10.84;67.80;101382.75;685764;28;22360;-66
2021/10/12 00:11:46;;;;;;;941.20;885.50;;;;;;;10.82;67.82;101380.22;685656;28;21321;-66
2021/10/12 00:12:08;;;;;;;927.28;872.75;;;;;;;10.82;67.89;101382.94;685410;28;22394;-66
2021/10/12 00:12:29;;;;;;;924.70;870.75;;;;;;;10.80;67.80;101377.69;684781;28;45228;-66
2021/10/12 00:12:50;;;;;;;895.60;843.17;;;;;;;10.78;68.04;101378.84;684793;28;45215;-66
2021/10/12 00:13:12;;;;;;;890.75;838.83;;;;;;;10.77;67.72;101380.72;685075;28;21488;-67
2021/10/12 00:13:36;;;;;;;910.63;857.35;;;;;;;10.76;67.91;101379.00;685234;28;21531;-67
2021/10/12 00:13:57;;;;;;;879.88;828.67;;;;;;;10.74;67.71;101372.94;682727;28;113302;-66
2021/10/12 00:14:19;;;;;;;868.15;817.63;;;;;;;10.74;68.12;101381.03;685683;28;23498;-66
2021/10/12 00:14:40;;;;;;;882.45;831.17;;;;;;;10.74;68.19;101385.59;685271;28;22241;-66
2021/10/12 00:15:02;;;;;;;854.38;804.15;;;;;;;10.76;67.81;101379.00;685090;28;22242;-66
2021/10/12 00:15:23;;;;;;;859.13;809.13;;;;;;;10.73;68.28;101371.22;684880;28;46054;-66
2021/10/12 00:15:44;;;;;;;860.10;809.90;;;;;;;10.76;67.99;101373.59;685671;28;23422;-66
2021/10/12 00:16:06;;;;;;;858.10;808.10;;;;;;;10.75;67.96;101374.63;685640;28;26015;-66
2021/10/12 00:16:28;;;;;;;858.03;807.63;;;;;;;10.74;68.19;101372.94;685639;28;21460;-66
2021/10/12 00:16:49;;;;;;;860.15;809.83;;;;;;;10.72;68.26;101377.66;684791;28;44386;-66
2021/10/12 00:17:10;;;;;;;862.13;811.63;;;;;;;10.73;68.14;101373.94;685529;28;21366;-66
2021/10/12 00:17:31;;;;;;;859.85;809.17;;;;;;;10.70;68.13;101366.16;684786;28;44335;-66
2021/10/12 00:17:53;;;;;;;869.67;818.67;;;;;;;10.75;67.93;101373.78;685463;28;1606;-66
2021/10/12 00:18:15;;;;;;;855.13;805.15;;;;;;;10.74;68.11;101375.63;685469;28;22397;-67
2021/10/12 00:18:36;;;;;;;865.63;815.22;;;;;;;10.72;68.06;101368.69;684719;28;45193;-66
2021/10/12 00:18:59;;;;;;;846.75;797.42;;;;;;;10.68;68.16;101365.47;684329;28;67459;-66
2021/10/12 00:19:20;;;;;;;858.42;808.60;;;;;;;10.71;67.97;101375.13;685756;28;23503;-67
2021/10/12 00:19:42;;;;;;;856.17;806.03;;;;;;;10.71;68.07;101383.22;685619;28;22013;-67
2021/10/12 00:20:04;;;;;;;845.88;796.28;;;;;;;10.68;68.17;101375.44;684072;28;47382;-66
2021/10/12 00:20:25;;;;;;;856.38;806.45;;;;;;;10.68;67.98;101372.75;685160;28;46455;-66
2021/10/12 00:20:46;;;;;;;862.67;812.67;;;;;;;10.68;68.15;101376.28;684724;28;46309;-66
2021/10/12 00:21:10;;;;;;;862.38;811.78;;;;;;;10.67;68.06;101369.19;685154;28;46368;-66
2021/10/12 00:21:31;;;;;;;887.22;835.28;;;;;;;10.66;68.27;101372.91;684271;28;70130;-66
2021/10/12 00:21:52;;;;;;;870.08;818.67;;;;;;;10.67;68.07;101369.19;685706;28;20843;-66
2021/10/12 00:22:13;;;;;;;862.65;811.85;;;;;;;10.68;68.08;101384.38;685547;28;22397;-66
2021/10/12 00:22:36;;;;;;;881.65;829.35;;;;;;;10.69;68.42;101371.72;685656;28;21503;-66
2021/10/12 00:22:57;;;;;;;865.83;814.78;;;;;;;10.66;68.35;101374.75;684046;28;67253;-66
2021/10/12 00:23:18;;;;;;;856.08;805.40;;;;;;;10.66;68.35;101378.31;685474;28;23309;-67
2021/10/12 00:23:39;;;;;;;877.45;825.67;;;;;;;10.65;68.31;101368.50;685527;28;22411;-66
2021/10/12 00:24:03;;;;;;;850.15;800.13;;;;;;;10.61;68.28;101368.00;685424;28;24590;-67
2021/10/12 00:24:24;;;;;;;844.47;795.08;;;;;;;10.66;68.20;101380.13;683196;28;93229;-67
2021/10/12 00:24:45;;;;;;;875.35;824.00;;;;;;;10.61;68.42;101368.00;686057;28;23731;-66
2021/10/12 00:25:06;;;;;;;849.97;799.42;;;;;;;10.59;68.25;101366.44;684813;28;22287;-66
2021/10/12 00:25:28;;;;;;;824.00;775.25;;;;;;;10.62;68.05;101375.06;685667;28;23478;-66
2021/10/12 00:25:50;;;;;;;848.35;798.40;;;;;;;10.61;68.19;101372.53;685213;28;45234;-66
2021/10/12 00:26:11;;;;;;;859.38;809.35;;;;;;;10.60;68.37;101376.25;686225;28;21358;-66
2021/10/12 00:26:32;;;;;;;841.78;791.92;;;;;;;10.59;68.11;101372.69;685603;28;44061;-66
2021/10/12 00:26:54;;;;;;;828.47;779.92;;;;;;;10.59;68.27;101375.38;686180;28;23303;-67
2021/10/12 00:27:15;;;;;;;842.47;792.55;;;;;;;10.59;68.46;101369.16;684616;28;45101;-66
2021/10/12 00:27:36;;;;;;;844.70;794.83;;;;;;;10.59;68.18;101372.69;685954;28;21356;-66
2021/10/12 00:27:57;;;;;;;843.40;793.20;;;;;;;10.58;68.59;101379.13;686140;28;22290;-66
2021/10/12 00:28:19;;;;;;;871.45;820.33;;;;;;;10.59;68.38;101377.25;685978;28;21556;-66
2021/10/12 00:28:40;;;;;;;853.65;803.38;;;;;;;10.59;68.43;101379.94;685035;28;45330;-66
2021/10/12 00:29:01;;;;;;;842.00;793.17;;;;;;;10.57;68.49;101372.00;686237;28;22385;-66
2021/10/12 00:29:22;;;;;;;830.33;781.47;;;;;;;10.58;68.30;101375.53;686321;28;22377;-66
2021/10/12 00:29:44;;;;;;;804.85;757.45;;;;;;;10.57;68.55;101368.47;686510;28;21329;-66
2021/10/12 00:30:06;;;;;;;780.75;735.08;;;;;;;10.57;68.45;101371.16;684600;28;44400;-67
2021/10/12 00:30:27;;;;;;;767.00;721.85;;;;;;;10.56;68.34;101369.47;685419;28;46562;-67
2021/10/12 00:30:48;;;;;;;771.00;725.65;;;;;;;10.54;68.47;101368.78;686621;28;23484;-66
2021/10/12 00:31:10;;;;;;;751.63;707.80;;;;;;;10.56;68.58;101370.31;686122;28;23449;-67
2021/10/12 00:31:31;;;;;;;745.30;701.88;;;;;;;10.55;68.50;101365.06;685407;28;44213;-66
2021/10/12 00:31:52;;;;;;;756.65;711.85;;;;;;;10.55;68.61;101367.75;686016;28;24780;-66
2021/10/12 00:32:14;;;;;;;773.70;728.25;;;;;;;10.55;68.43;101375.88;686142;28;23399;-66
2021/10/12 00:32:35;;;;;;;789.47;742.85;;;;;;;10.55;68.50;101368.63;686454;28;21510;-66
2021/10/12 00:32:57;;;;;;;773.85;728.45;;;;;;;10.55;68.54;101374.03;688803;28;22224;-66
2021/10/12 00:33:18;;;;;;;747.85;704.10;;;;;;;10.56;68.33;101367.59;687800;28;45270;-67
2021/10/12 00:33:39;;;;;;;756.38;711.95;;;;;;;10.56;68.52;101364.91;688455;28;23471;-67
2021/10/12 00:34:00;;;;;;;744.53;701.78;;;;;;;10.56;68.28;101370.31;688681;28;23242;-66
2021/10/12 00:34:22;;;;;;;717.43;676.37;;;;;;;10.53;68.64;101367.09;689128;28;22202;-66
2021/10/12 00:34:43;;;;;;;727.88;685.65;;;;;;;10.52;68.45;101368.94;684252;28;69457;-66
2021/10/12 00:35:05;;;;;;;712.50;671.15;;;;;;;10.53;68.58;101367.09;685522;28;22398;-66
2021/10/12 00:35:26;;;;;;;721.60;679.42;;;;;;;10.53;68.31;101364.38;685014;28;46332;-66
2021/10/12 00:35:48;;;;;;;745.38;701.75;;;;;;;10.52;68.33;101374.34;685664;28;21511;-67
2021/10/12 00:36:11;;;;;;;696.88;656.13;;;;;;;10.50;68.40;101368.28;685083;28;46275;-66
2021/10/12 00:36:32;;;;;;;710.60;669.38;;;;;;;10.51;68.71;101363.72;685831;28;46300;-66
2021/10/12 00:36:54;;;;;;;737.45;694.10;;;;;;;10.50;68.45;101370.13;688275;28;22553;-66
2021/10/12 00:37:16;;;;;;;749.13;705.35;;;;;;;10.50;68.45;101365.56;684883;28;92273;-66
2021/10/12 00:37:37;;;;;;;790.95;744.42;;;;;;;10.50;68.75;101370.97;685244;28;22368;-67
2021/10/12 00:37:59;;;;;;;775.72;729.90;;;;;;;10.49;68.62;101371.13;687255;28;20695;-66
2021/10/12 00:38:22;;;;;;;748.28;704.00;;;;;;;10.49;68.46;101368.44;686202;28;24181;-66
2021/10/12 00:38:44;;;;;;;735.15;692.35;;;;;;;10.48;68.52;101364.88;685084;28;69250;-66
2021/10/12 00:39:05;;;;;;;760.13;715.90;;;;;;;10.48;68.54;101366.75;685016;28;43511;-66
2021/10/12 00:39:26;;;;;;;730.03;687.30;;;;;;;10.46;68.93;101370.44;685835;28;24391;-67
2021/10/12 00:39:47;;;;;;;742.33;699.05;;;;;;;10.48;68.57;101369.44;686873;28;23106;-66
2021/10/12 00:40:10;;;;;;;757.25;713.05;;;;;;;10.45;68.93;101367.91;683100;28;19440;-66
2021/10/12 00:40:31;;;;;;;732.05;689.55;;;;;;;10.45;68.92;101363.34;682046;28;68476;-66
2021/10/12 00:40:52;;;;;;;762.08;717.17;;;;;;;10.46;68.70;101369.59;682606;28;23415;-66
2021/10/12 00:41:14;;;;;;;763.88;718.92;;;;;;;10.48;68.60;101370.28;683141;28;44390;-66
2021/10/12 00:41:36;;;;;;;746.50;703.03;;;;;;;10.48;68.59;101370.28;682413;28;46321;-66
2021/10/12 00:41:58;;;;;;;780.60;734.60;;;;;;;10.49;68.76;101368.44;683145;28;69667;-67
2021/10/12 00:42:19;;;;;;;790.40;743.75;;;;;;;10.47;68.96;101371.31;685929;28;21520;-67
2021/10/12 00:42:40;;;;;;;777.13;731.55;;;;;;;10.46;68.80;101366.91;685497;28;23534;-66
2021/10/12 00:43:02;;;;;;;766.28;721.40;;;;;;;10.46;68.69;101362.34;686278;28;21541;-66
2021/10/12 00:43:25;;;;;;;792.72;746.35;;;;;;;10.47;68.81;101365.91;685367;28;46345;-66
2021/10/12 00:43:46;;;;;;;783.00;737.03;;;;;;;10.48;68.60;101364.03;684242;28;68514;-67
2021/10/12 00:44:09;;;;;;;772.38;726.63;;;;;;;10.46;68.69;101361.50;685448;28;46423;-66
2021/10/12 00:44:30;;;;;;;793.30;746.75;;;;;;;10.45;68.85;101363.34;685670;28;46041;-66
2021/10/12 00:44:51;;;;;;;781.47;735.78;;;;;;;10.44;68.72;101367.06;686536;28;22420;-66
2021/10/12 00:45:13;;;;;;;792.47;745.95;;;;;;;10.44;68.52;101366.22;684435;28;65564;-67
2021/10/12 00:45:36;;;;;;;812.63;765.15;;;;;;;10.43;68.59;101362.66;686700;28;8159;-66
2021/10/12 00:45:57;;;;;;;787.60;741.50;;;;;;;10.42;68.77;101362.81;683995;28;69159;-66
2021/10/12 00:46:19;;;;;;;789.20;743.55;;;;;;;10.38;68.78;101356.06;686205;28;21541;-66
2021/10/12 00:46:41;;;;;;;804.22;757.38;;;;;;;10.42;68.59;101368.22;685158;28;44374;-66
2021/10/12 00:47:02;;;;;;;782.58;737.03;;;;;;;10.41;68.60;101363.84;685247;28;45295;-66
2021/10/12 00:47:23;;;;;;;790.00;744.53;;;;;;;10.38;68.62;101365.00;686371;28;12750;-66
2021/10/12 00:48:03;;;;;;;803.78;757.10;;;;;;;10.40;68.68;101362.97;685454;28;22378;-66
2021/10/12 00:48:25;;;;;;;753.22;710.40;;;;;;;10.41;69.00;101363.84;682428;28;137549;-66
2021/10/12 00:48:46;;;;;;;762.55;719.13;;;;;;;10.40;69.01;101364.84;685628;28;46123;-66
2021/10/12 00:49:09;;;;;;;766.17;722.20;;;;;;;10.40;68.75;101371.06;684365;28;69414;-66
2021/10/12 00:49:30;;;;;;;745.80;703.03;;;;;;;10.38;68.91;101365.00;686269;28;21682;-66
2021/10/12 00:49:52;;;;;;;759.28;715.05;;;;;;;10.39;68.74;101365.84;686658;28;22284;-66
2021/10/12 00:50:13;;;;;;;772.85;728.25;;;;;;;10.39;68.62;101369.41;684563;28;65538;-66
2021/10/12 00:50:36;;;;;;;753.95;710.50;;;;;;;10.36;68.66;101364.31;686565;28;22252;-66
2021/10/12 00:50:57;;;;;;;745.60;703.72;;;;;;;10.36;68.88;101363.44;684643;28;67535;-66
2021/10/12 00:51:21;;;;;;;730.67;689.33;;;;;;;10.33;68.78;101359.25;686311;28;23411;-66
2021/10/12 00:51:42;;;;;;;751.50;708.47;;;;;;;10.33;68.82;101367.34;683430;28;92235;-66
2021/10/12 00:52:04;;;;;;;757.28;713.08;;;;;;;10.32;68.81;101362.91;686462;28;23496;-66
2021/10/12 00:52:25;;;;;;;697.38;658.83;;;;;;;10.31;68.95;101363.91;685508;28;46476;-67
2021/10/12 00:52:47;;;;;;;714.17;674.28;;;;;;;10.28;68.74;101361.50;686403;28;22098;-66
2021/10/12 00:53:08;;;;;;;709.95;670.70;;;;;;;10.29;69.01;101361.34;685657;28;45070;-66
2021/10/12 00:53:30;;;;;;;710.65;670.83;;;;;;;10.29;68.90;101366.75;686284;28;20888;-66
2021/10/12 00:53:52;;;;;;;732.83;691.88;;;;;;;10.28;68.92;101362.38;686257;28;23294;-66
2021/10/12 00:54:15;;;;;;;709.45;669.45;;;;;;;10.27;69.11;101359.84;683591;28;91949;-66
2021/10/12 00:54:36;;;;;;;714.67;673.78;;;;;;;10.28;68.93;101366.91;686288;28;23425;-66
2021/10/12 00:54:57;;;;;;;703.33;663.10;;;;;;;10.27;69.05;101357.97;686023;28;21549;-67
2021/10/12 00:55:18;;;;;;;709.95;669.53;;;;;;;10.27;69.17;101355.28;685515;28;44379;-66
2021/10/12 00:55:40;;;;;;;765.75;721.33;;;;;;;10.27;69.21;101363.38;686543;28;21537;-67
2021/10/12 00:56:02;;;;;;;740.90;697.28;;;;;;;10.27;68.92;101365.25;684414;28;46341;-66
2021/10/12 00:56:23;;;;;;;727.47;685.85;;;;;;;10.26;69.27;101363.53;685418;28;46202;-66
2021/10/12 00:56:45;;;;;;;722.88;681.22;;;;;;;10.25;69.15;101364.53;686293;28;23404;-66
2021/10/12 00:57:08;;;;;;;735.33;693.35;;;;;;;10.23;69.30;101361.16;686349;28;23439;-66
2021/10/12 00:57:29;;;;;;;702.45;662.53;;;;;;;10.24;68.91;101363.69;684923;28;69426;-66
2021/10/12 00:57:51;;;;;;;727.33;685.83;;;;;;;10.22;69.20;101360.31;685560;28;21545;-67
2021/10/12 00:58:14;;;;;;;734.08;692.17;;;;;;;10.21;69.05;101355.91;685376;28;46413;-66
2021/10/12 00:58:36;;;;;;;769.88;724.78;;;;;;;10.22;69.22;101359.47;683628;28;92248;-66
2021/10/12 00:58:57;;;;;;;773.22;727.63;;;;;;;10.21;69.25;101360.47;686112;28;47459;-66
2021/10/12 00:59:18;;;;;;;744.97;701.17;;;;;;;10.20;69.25;101358.78;685994;28;23396;-67
2021/10/12 00:59:40;;;;;;;742.92;698.55;;;;;;;10.20;69.26;101364.19;686038;28;22385;-66
2021/10/12 01:00:02;;;;;;;734.03;688.95;;;;;;;10.19;69.29;101357.94;684846;28;44393;-66
2021/10/12 01:00:24;;;;;;;719.38;675.17;;;;;;;10.18;69.06;101356.25;685413;28;46378;-66
2021/10/12 01:00:45;;;;;;;730.83;686.38;;;;;;;10.18;69.09;101353.53;685350;28;45100;-66
2021/10/12 01:01:06;;;;;;;752.25;706.55;;;;;;;10.18;69.30;101360.78;686053;28;21540;-66
2021/10/12 01:01:28;;;;;;;752.28;707.92;;;;;;;10.16;69.03;101360.97;685935;28;21522;-66
2021/10/12 01:01:49;;;;;;;775.00;729.92;;;;;;;10.17;69.08;101353.69;685497;28;46271;-66
2021/10/12 01:02:10;;;;;;;758.00;713.67;;;;;;;10.16;69.22;101360.13;686046;28;23456;-66
2021/10/12 01:02:34;;;;;;;722.05;680.00;;;;;;;10.15;69.13;101350.31;685607;28;44369;-67
2021/10/12 01:02:56;;;;;;;739.25;696.88;;;;;;;10.15;69.14;101353.84;685777;28;44312;-67
2021/10/12 01:03:17;;;;;;;768.92;724.28;;;;;;;10.13;69.47;101349.66;685033;28;47798;-66
2021/10/12 01:03:39;;;;;;;745.55;701.97;;;;;;;10.13;69.29;101349.66;685333;28;46370;-66
2021/10/12 01:04:00;;;;;;;717.90;675.47;;;;;;;10.13;69.39;101349.66;684957;28;45236;-66
2021/10/12 01:04:22;;;;;;;753.25;708.50;;;;;;;10.12;69.32;101348.78;685408;28;22546;-66
2021/10/12 01:04:43;;;;;;;764.55;719.72;;;;;;;10.10;69.41;101343.53;685022;28;46380;-66
2021/10/12 01:05:05;;;;;;;747.38;703.85;;;;;;;10.10;69.28;101346.22;686145;28;22343;-66
2021/10/12 01:05:27;;;;;;;740.40;696.75;;;;;;;10.10;69.19;101348.94;686132;28;22385;-66
2021/10/12 01:05:49;;;;;;;764.47;719.17;;;;;;;10.12;69.35;101350.63;685255;28;45028;-66
2021/10/12 01:06:11;;;;;;;746.92;703.42;;;;;;;10.13;69.52;101344.25;684617;28;69105;-66
2021/10/12 01:06:33;;;;;;;732.63;690.50;;;;;;;10.09;69.13;101341.88;686274;28;23296;-66
2021/10/12 01:06:54;;;;;;;763.17;718.63;;;;;;;10.12;69.14;101345.25;684794;28;67496;-66
2021/10/12 01:07:17;;;;;;;761.78;717.05;;;;;;;10.08;69.35;101340.16;686023;28;23404;-66
2021/10/12 01:07:39;;;;;;;742.58;698.42;;;;;;;10.09;69.13;101349.09;683728;28;66869;-66
2021/10/12 01:08:00;;;;;;;776.47;730.80;;;;;;;10.08;69.07;101345.56;685922;28;22393;-66
2021/10/12 01:08:21;;;;;;;764.60;719.55;;;;;;;10.08;69.23;101347.41;688228;28;21956;-66
2021/10/12 01:08:43;;;;;;;749.63;705.60;;;;;;;10.09;69.11;101346.41;688804;28;22288;-66
2021/10/12 01:09:04;;;;;;;777.10;731.70;;;;;;;10.08;69.22;101350.94;687739;28;46400;-66
2021/10/12 01:09:26;;;;;;;762.15;717.35;;;;;;;10.07;69.21;101338.44;687577;28;44285;-67
2021/10/12 01:09:47;;;;;;;752.38;708.38;;;;;;;10.06;69.37;101347.56;688876;28;23473;-66
2021/10/12 01:10:09;;;;;;;760.63;716.15;;;;;;;10.07;69.39;101351.94;687876;28;23670;-66
2021/10/12 01:10:32;;;;;;;760.17;714.92;;;;;;;10.06;69.18;101341.31;684515;28;67314;-66
2021/10/12 01:10:53;;;;;;;777.38;731.67;;;;;;;10.05;69.25;101340.47;684567;28;46304;-67
2021/10/12 01:11:14;;;;;;;747.15;703.50;;;;;;;10.03;69.48;101341.63;686159;28;21359;-66
2021/10/12 01:11:38;;;;;;;736.92;693.67;;;;;;;10.06;69.36;101346.72;685007;28;46055;-66
2021/10/12 01:12:00;;;;;;;742.03;697.20;;;;;;;10.04;69.25;101344.16;683646;28;91520;-66
2021/10/12 01:12:21;;;;;;;729.63;685.33;;;;;;;10.04;69.24;101346.03;685318;28;23766;-67
2021/10/12 01:12:42;;;;;;;759.08;714.25;;;;;;;10.04;69.29;101346.88;685396;28;21521;-67
2021/10/12 01:13:03;;;;;;;759.28;715.53;;;;;;;10.03;69.49;101341.63;685713;28;22406;-67
2021/10/12 01:13:26;;;;;;;784.28;738.60;;;;;;;10.02;69.45;101335.41;686535;28;22432;-67
2021/10/12 01:13:47;;;;;;;781.45;735.67;;;;;;;10.02;69.42;101335.41;686540;28;69288;-66
2021/10/12 01:14:08;;;;;;;758.15;713.10;;;;;;;10.00;69.49;101334.72;686460;28;21541;-66
2021/10/12 01:14:29;;;;;;;764.00;718.00;;;;;;;10.02;69.76;101338.09;686056;28;22393;-67
2021/10/12 01:14:50;;;;;;;765.53;718.63;;;;;;;10.03;69.57;101344.31;685644;28;22402;-66
2021/10/12 01:15:12;;;;;;;735.65;690.40;;;;;;;10.02;69.74;101335.41;686161;28;22380;-66
2021/10/12 01:15:34;;;;;;;736.88;693.58;;;;;;;10.01;69.54;101339.09;685106;28;45231;-67
2021/10/12 01:15:55;;;;;;;766.60;721.65;;;;;;;10.02;69.65;101329.16;684837;28;44261;-67
2021/10/12 01:16:18;;;;;;;749.00;705.20;;;;;;;9.99;69.59;101333.00;686028;28;23330;-66
2021/10/12 01:16:39;;;;;;;751.35;707.78;;;;;;;10.00;69.46;101331.16;684783;28;69437;-66
2021/10/12 01:17:00;;;;;;;749.80;705.40;;;;;;;10.00;69.79;101337.41;686001;28;22403;-66
2021/10/12 01:17:21;;;;;;;737.13;693.17;;;;;;;10.01;69.79;101340.94;686092;28;20802;-66
2021/10/12 01:17:43;;;;;;;767.67;722.25;;;;;;;9.98;69.64;101327.78;685815;28;22399;-66
2021/10/12 01:18:11;;;;;;;750.28;706.65;;;;;;;9.97;69.76;101337.72;685020;28;46272;-66
2021/10/12 01:18:34;;;;;;;739.60;695.78;;;;;;;9.95;69.47;101328.94;682292;28;136345;-66
2021/10/12 01:18:56;;;;;;;732.40;689.03;;;;;;;9.98;69.69;101339.41;684566;28;70303;-67
2021/10/12 01:19:17;;;;;;;737.78;695.25;;;;;;;9.98;69.53;101339.41;684350;28;69627;-66
2021/10/12 01:19:38;;;;;;;766.00;720.47;;;;;;;9.96;69.58;101333.31;686487;28;22232;-66
2021/10/12 01:19:59;;;;;;;753.97;709.47;;;;;;;9.96;69.87;101335.19;685755;28;22395;-66
2021/10/12 01:20:22;;;;;;;743.63;700.65;;;;;;;9.96;69.65;101335.19;686060;28;22161;-67
2021/10/12 01:20:43;;;;;;;756.42;711.67;;;;;;;9.95;69.62;101331.63;684995;28;44342;-66
2021/10/12 01:21:05;;;;;;;774.97;729.53;;;;;;;9.95;69.87;101334.31;685128;28;41945;-66
2021/10/12 01:21:26;;;;;;;756.78;711.67;;;;;;;9.95;69.83;101326.22;684630;28;69377;-66
2021/10/12 01:21:49;;;;;;;769.80;724.55;;;;;;;9.96;69.56;101335.19;686157;28;22391;-66
2021/10/12 01:22:10;;;;;;;774.90;729.40;;;;;;;9.94;69.69;101335.34;684421;28;69111;-66
2021/10/12 01:22:32;;;;;;;743.45;699.15;;;;;;;9.95;69.61;101334.31;686171;28;21561;-66
2021/10/12 01:22:54;;;;;;;731.10;687.10;;;;;;;9.95;69.77;101336.19;685623;28;22348;-66
2021/10/12 01:23:15;;;;;;;722.22;678.58;;;;;;;9.93;69.64;101333.63;685024;28;45240;-66
2021/10/12 01:23:37;;;;;;;700.90;658.65;;;;;;;9.93;69.95;101333.63;685864;28;21896;-66
2021/10/12 01:23:58;;;;;;;716.55;672.95;;;;;;;9.94;69.83;101335.34;684856;28;45238;-67
2021/10/12 01:24:19;;;;;;;703.60;661.15;;;;;;;9.96;69.78;101332.50;685165;28;22493;-67
2021/10/12 01:24:40;;;;;;;712.70;669.70;;;;;;;9.95;69.97;101337.03;685992;28;22331;-66
2021/10/12 01:25:01;;;;;;;727.35;683.85;;;;;;;9.95;69.97;101337.03;684804;28;46349;-66
2021/10/12 01:25:23;;;;;;;730.35;688.67;;;;;;;9.96;69.97;101329.78;683309;28;23457;-66
2021/10/12 01:25:44;;;;;;;690.90;652.50;;;;;;;9.94;69.78;101332.66;684652;28;45400;-66
2021/10/12 01:26:05;;;;;;;707.17;667.38;;;;;;;9.93;69.58;101325.53;686443;28;22392;-66
2021/10/12 01:26:26;;;;;;;709.72;669.72;;;;;;;9.94;69.67;101327.25;685826;28;21355;-66
2021/10/12 01:26:48;;;;;;;690.45;651.55;;;;;;;9.93;69.50;101329.09;685918;28;22395;-66
2021/10/12 01:27:09;;;;;;;713.55;672.67;;;;;;;9.92;69.75;101330.09;684965;28;45291;-66
2021/10/12 01:27:30;;;;;;;694.90;656.05;;;;;;;9.92;69.63;101324.72;686135;28;23473;-66
2021/10/12 01:27:51;;;;;;;674.33;636.35;;;;;;;9.91;69.86;101328.41;685245;28;22398;-67
2021/10/12 01:28:14;;;;;;;689.13;649.42;;;;;;;9.91;69.84;101322.16;686050;28;23496;-66
2021/10/12 01:28:35;;;;;;;666.80;629.30;;;;;;;9.87;69.74;101316.25;685216;28;44444;-66
2021/10/12 01:28:56;;;;;;;699.25;659.13;;;;;;;9.87;69.61;101316.25;686083;28;22362;-66
2021/10/12 01:29:17;;;;;;;722.83;681.15;;;;;;;9.90;69.81;101328.56;685608;28;23513;-66
2021/10/12 01:29:39;;;;;;;722.58;681.28;;;;;;;9.89;69.74;101324.16;686267;28;22402;-66
2021/10/12 01:30:00;;;;;;;737.90;695.20;;;;;;;9.88;69.67;101319.78;684762;28;46344;-66
2021/10/12 01:30:21;;;;;;;782.20;736.28;;;;;;;9.86;69.68;101319.13;686294;28;22401;-66
2021/10/12 01:30:44;;;;;;;761.60;715.97;;;;;;;9.85;69.61;101317.41;685425;28;45662;-66
2021/10/12 01:31:06;;;;;;;755.47;710.22;;;;;;;9.83;69.69;101319.44;684175;28;65618;-66
2021/10/12 01:31:27;;;;;;;776.58;730.10;;;;;;;9.83;69.75;101316.72;686135;28;19320;-66
2021/10/12 01:31:49;;;;;;;767.25;721.70;;;;;;;9.82;69.59;101312.31;685419;28;45315;-66
2021/10/12 01:32:10;;;;;;;769.30;723.95;;;;;;;9.81;69.81;101313.31;686328;28;23642;-66
2021/10/12 01:32:32;;;;;;;761.08;714.97;;;;;;;9.79;69.90;101321.56;686371;28;22450;-66
2021/10/12 01:32:53;;;;;;;748.97;703.00;;;;;;;9.79;69.87;101315.34;684913;28;45466;-66
2021/10/12 01:33:14;;;;;;;753.55;707.15;;;;;;;9.78;69.63;101314.50;686054;28;22454;-66
2021/10/12 01:33:36;;;;;;;691.88;649.90;;;;;;;9.78;69.93;101309.09;685307;28;44325;-66
2021/10/12 01:33:58;;;;;;;722.45;678.17;;;;;;;9.76;69.77;101313.78;685538;28;46372;-66
2021/10/12 01:34:20;;;;;;;693.22;651.20;;;;;;;9.76;69.92;101308.41;685472;28;21524;-67
2021/10/12 01:34:41;;;;;;;738.28;694.50;;;;;;;9.74;69.74;101311.25;685453;28;44417;-66
2021/10/12 01:35:03;;;;;;;810.13;762.78;;;;;;;9.73;69.89;101308.72;685135;28;44328;-66
2021/10/12 01:35:25;;;;;;;798.17;751.22;;;;;;;9.74;70.05;101313.13;685924;28;23488;-66
2021/10/12 01:35:50;;;;;;;821.63;772.95;;;;;;;9.73;70.07;101309.56;684929;28;46323;-66
2021/10/12 01:36:12;;;;;;;814.20;766.17;;;;;;;9.72;70.04;101310.56;683298;28;115079;-66
2021/10/12 01:36:33;;;;;;;801.88;754.17;;;;;;;9.70;69.92;101307.19;684505;28;69221;-66
2021/10/12 01:36:55;;;;;;;819.40;770.67;;;;;;;9.70;69.90;101304.50;686156;28;23414;-66
2021/10/12 01:37:16;;;;;;;794.20;746.72;;;;;;;9.72;70.01;101307.03;685131;28;46347;-66
2021/10/12 01:37:37;;;;;;;803.42;756.08;;;;;;;9.72;70.23;101298.94;685393;28;23427;-67